Rockaway Beach, Missouri
Current Conditions -  °F | °C
As of 7:45 AM on Thursday 18 Dec 2014 (Local Time) from KBBG Reporting Station
Light Rain Light Rain  
Wind Chill: 27°   Ceiling: 200
Heat Index: 32°   Visibility: 2.5mi
Dew Point: 32°   Wind: 5mph
Humidity: 100%   Direction: 80°E
Pressure: 30.19"   Gusts: NA
Location:  36.7°N, 93.16°W
Report Text: KBBG 181345Z 08004KT 2 1/2SM -RA BR OVC002 00/00 A3019
Loading
Personal Weather Stations






























Interactive Weather Map New forecast layout! Learn more

10-Day Weather Forecast

Advertisements
Track Severe Weather on mobile